createdAt,value
2023-01-13T00:01:27.827Z,71.50
2023-01-13T00:03:57.005Z,64.67
2023-01-13T00:06:26.939Z,65.33
2023-01-13T00:08:57.827Z,65.00
2023-01-13T00:11:27.737Z,68.33
2023-01-13T00:13:57.147Z,66.33
2023-01-13T00:16:25.984Z,67.33
2023-01-13T00:18:54.595Z,75.50
2023-01-13T00:21:24.999Z,70.50
2023-01-13T00:23:55.122Z,74.25
2023-01-13T00:26:27.063Z,75.00
2023-01-13T00:28:58.935Z,72.75
2023-01-13T00:31:29.973Z,68.00
2023-01-13T00:34:00.160Z,64.67
2023-01-13T00:36:30.772Z,67.67
2023-01-13T00:39:00.225Z,67.67
2023-01-13T00:41:50.211Z,68.00
2023-01-13T00:44:18.239Z,66.33
2023-01-13T00:46:46.886Z,63.33
2023-01-13T00:49:16.110Z,63.33
2023-01-13T00:51:44.574Z,68.75
2023-01-13T00:54:13.365Z,66.00
2023-01-13T00:56:43.285Z,68.67
2023-01-13T00:59:13.591Z,65.50
2023-01-13T01:01:42.494Z,63.50
2023-01-13T01:04:12.204Z,66.00
2023-01-13T01:06:40.988Z,72.75
2023-01-13T01:09:14.072Z,66.25
2023-01-13T01:11:44.853Z,79.00
2023-01-13T01:14:15.423Z,77.00
2023-01-13T01:16:43.975Z,81.25
2023-01-13T01:19:12.888Z,77.75
2023-01-13T01:21:41.901Z,71.75
2023-01-13T01:24:11.408Z,66.00
2023-01-13T01:26:41.904Z,75.00
2023-01-13T01:29:15.210Z,69.50
2023-01-13T01:31:44.987Z,71.25
2023-01-13T01:34:13.928Z,75.25
2023-01-13T01:36:42.699Z,80.25
2023-01-13T01:39:12.007Z,77.50
2023-01-13T01:42:00.451Z,70.00
2023-01-13T01:44:53.804Z,77.25
2023-01-13T01:47:23.752Z,67.25
2023-01-13T01:49:52.980Z,68.00
2023-01-13T01:52:27.075Z,74.75
2023-01-13T01:55:00.873Z,69.25
2023-01-13T01:57:33.847Z,75.75
2023-01-13T02:00:05.426Z,76.00
2023-01-13T02:02:41.587Z,68.75
2023-01-13T02:05:10.848Z,81.25
2023-01-13T02:07:42.016Z,72.25
2023-01-13T02:10:13.601Z,70.00
2023-01-13T02:12:45.399Z,73.00
2023-01-13T02:15:18.999Z,69.33
2023-01-13T02:18:20.509Z,73.50
2023-01-13T02:21:13.748Z,68.50
2023-01-13T02:24:47.805Z,66.75
2023-01-13T02:27:41.900Z,66.00
2023-01-13T02:30:38.979Z,69.33
2023-01-13T02:33:20.461Z,69.00
2023-01-13T02:35:53.475Z,65.33
2023-01-13T02:38:28.815Z,64.33
2023-01-13T02:41:21.841Z,65.67
2023-01-13T02:44:08.345Z,63.33
2023-01-13T02:46:45.648Z,64.00
2023-01-13T02:49:21.298Z,64.00
2023-01-13T02:51:52.539Z,62.25
2023-01-13T02:54:25.699Z,65.00
2023-01-13T02:56:56.922Z,62.00
2023-01-13T02:59:27.945Z,60.33
2023-01-13T03:01:58.567Z,63.33
2023-01-13T03:04:51.527Z,64.67
2023-01-13T03:07:55.748Z,64.00
2023-01-13T03:10:39.083Z,62.67
2023-01-13T03:13:18.614Z,62.00
2023-01-13T03:16:01.427Z,64.00
2023-01-13T03:18:41.829Z,60.00
2023-01-13T03:21:21.039Z,56.33
2023-01-13T03:23:54.111Z,61.00
2023-01-13T03:26:32.042Z,64.00
2023-01-13T03:29:07.873Z,59.67
2023-01-13T03:31:44.498Z,61.00
2023-01-13T03:34:18.478Z,59.33
2023-01-13T03:36:51.449Z,58.67
2023-01-13T03:39:28.262Z,58.00
2023-01-13T03:42:01.613Z,56.25
2023-01-13T03:44:34.090Z,57.25
2023-01-13T03:47:11.400Z,57.50
2023-01-13T03:49:48.293Z,56.25
2023-01-13T03:52:24.250Z,56.75
2023-01-13T03:54:56.781Z,52.75
2023-01-13T03:57:30.637Z,54.25
2023-01-13T04:00:04.071Z,55.25
2023-01-13T04:02:54.960Z,56.25
2023-01-13T04:05:26.227Z,53.25
2023-01-13T04:08:02.220Z,53.00
2023-01-13T04:10:36.725Z,52.00
2023-01-13T04:13:09.276Z,53.50
2023-01-13T04:15:40.325Z,55.25
2023-01-13T04:18:15.835Z,56.00
2023-01-13T04:20:48.417Z,55.75
2023-01-13T04:23:18.265Z,55.25
2023-01-13T04:25:47.769Z,52.75
2023-01-13T04:28:17.844Z,55.25
2023-01-13T04:30:47.362Z,53.25
2023-01-13T04:33:17.945Z,55.25
2023-01-13T04:35:48.677Z,54.50
2023-01-13T04:38:20.596Z,55.25
2023-01-13T04:40:49.854Z,56.50
2023-01-13T04:43:18.999Z,54.50
2023-01-13T04:45:47.715Z,52.25
2023-01-13T04:48:16.586Z,60.25
2023-01-13T04:50:45.075Z,64.00
2023-01-13T04:53:15.409Z,64.33
2023-01-13T04:55:45.195Z,56.25
2023-01-13T04:58:14.013Z,56.75
2023-01-13T05:00:43.126Z,58.75
2023-01-13T05:03:12.104Z,56.25
2023-01-13T05:05:40.667Z,55.25
2023-01-13T05:08:10.164Z,55.25
2023-01-13T05:10:40.180Z,55.00
2023-01-13T05:13:27.697Z,64.33
2023-01-13T05:16:13.975Z,59.25
2023-01-13T05:18:43.022Z,59.50
2023-01-13T05:21:31.567Z,48.75
2023-01-13T05:24:17.724Z,68.25
2023-01-13T05:26:47.780Z,71.25
2023-01-13T05:29:16.687Z,54.00
2023-01-13T05:31:45.239Z,71.50
2023-01-13T05:34:14.457Z,63.33
2023-01-13T05:36:43.059Z,55.00
2023-01-13T05:39:12.088Z,57.25
2023-01-13T05:41:58.492Z,57.75
2023-01-13T05:44:28.836Z,56.25
2023-01-13T05:46:57.644Z,53.00
2023-01-13T05:49:26.515Z,51.00
2023-01-13T05:51:55.098Z,54.50
2023-01-13T05:54:23.899Z,47.75
2023-01-13T05:56:52.458Z,52.00
2023-01-13T05:59:21.402Z,54.00
2023-01-13T06:01:51.305Z,52.50
2023-01-13T06:04:20.255Z,49.50
2023-01-13T06:06:48.983Z,59.33
2023-01-13T06:09:17.965Z,57.50
2023-01-13T06:11:46.565Z,56.25
2023-01-13T06:14:15.856Z,57.50
2023-01-13T06:16:45.947Z,48.50
2023-01-13T06:19:16.436Z,52.00
2023-01-13T06:21:45.323Z,56.33
2023-01-13T06:24:14.246Z,63.00
2023-01-13T06:26:42.859Z,62.67
2023-01-13T06:29:15.027Z,60.67
2023-01-13T06:31:44.449Z,58.67
2023-01-13T06:34:14.785Z,60.33
2023-01-13T06:36:49.865Z,60.00
2023-01-13T06:39:23.647Z,59.75
2023-01-13T06:42:12.983Z,59.00
2023-01-13T06:44:42.125Z,51.00
2023-01-13T06:47:11.153Z,49.00
2023-01-13T06:49:40.102Z,46.50
2023-01-13T06:52:10.070Z,46.75
2023-01-13T06:54:39.063Z,44.75
2023-01-13T06:57:07.703Z,49.25
2023-01-13T06:59:36.684Z,49.00
2023-01-13T07:02:05.393Z,55.00
2023-01-13T07:04:34.325Z,53.00
2023-01-13T07:07:02.898Z,54.00
2023-01-13T07:09:33.219Z,53.50
2023-01-13T07:12:01.812Z,42.00
2023-01-13T07:14:48.315Z,41.25
2023-01-13T07:17:25.101Z,40.00
2023-01-13T07:19:54.721Z,41.25
2023-01-13T07:22:24.544Z,40.00
2023-01-13T07:24:54.849Z,28.25
2023-01-13T07:27:23.382Z,33.25
2023-01-13T07:29:52.203Z,28.00
2023-01-13T07:32:20.723Z,33.00
2023-01-13T07:34:49.588Z,21.40
2023-01-13T07:37:18.317Z,22.40
2023-01-13T07:39:47.375Z,26.20
2023-01-13T07:42:31.127Z,26.00
2023-01-13T07:45:00.313Z,24.60
2023-01-13T07:47:29.131Z,15.20
2023-01-13T07:49:57.996Z,20.00
2023-01-13T07:52:26.486Z,22.80
2023-01-13T07:54:55.258Z,26.40
2023-01-13T07:57:25.326Z,21.80
2023-01-13T07:59:54.239Z,22.20
2023-01-13T08:02:23.137Z,18.00
2023-01-13T08:04:52.085Z,29.20
2023-01-13T08:07:20.757Z,21.60
2023-01-13T08:09:49.899Z,21.80
2023-01-13T08:12:35.951Z,21.40
2023-01-13T08:15:10.110Z,22.40
2023-01-13T08:17:38.714Z,27.20
2023-01-13T08:20:08.912Z,29.60
2023-01-13T08:22:38.366Z,28.60
2023-01-13T08:25:08.109Z,30.00
2023-01-13T08:27:36.663Z,24.80
2023-01-13T08:30:08.494Z,28.40
2023-01-13T08:32:37.161Z,29.40
2023-01-13T08:35:06.771Z,25.00
2023-01-13T08:37:35.393Z,25.20
2023-01-13T08:40:04.608Z,27.25
2023-01-13T08:42:33.455Z,29.20
2023-01-13T08:45:02.291Z,27.20
2023-01-13T08:47:32.379Z,32.25
2023-01-13T08:50:01.296Z,29.25
2023-01-13T08:52:30.798Z,26.00
2023-01-13T08:54:59.649Z,35.75
2023-01-13T08:57:28.790Z,37.50
2023-01-13T08:59:57.863Z,33.00
2023-01-13T09:02:27.429Z,27.75
2023-01-13T09:04:57.791Z,37.00
2023-01-13T09:07:26.418Z,37.00
2023-01-13T09:09:56.875Z,30.25
2023-01-13T09:12:43.109Z,26.40
2023-01-13T09:15:12.553Z,36.75
2023-01-13T09:17:41.342Z,32.75
2023-01-13T09:20:13.805Z,27.50
2023-01-13T09:22:42.401Z,33.80
2023-01-13T09:25:12.607Z,30.50
2023-01-13T09:27:41.171Z,37.75
2023-01-13T09:30:11.533Z,36.00
2023-01-13T09:32:40.199Z,35.75
2023-01-13T09:35:10.326Z,27.25
2023-01-13T09:37:41.258Z,29.25
2023-01-13T09:40:32.169Z,40.25
2023-01-13T09:43:24.389Z,35.50
2023-01-13T09:46:01.619Z,37.25
2023-01-13T09:48:33.664Z,31.50
2023-01-13T09:51:14.701Z,36.75
2023-01-13T09:53:51.507Z,39.25
2023-01-13T09:56:20.319Z,36.25
2023-01-13T09:58:49.337Z,37.25
2023-01-13T10:01:29.452Z,39.50
2023-01-13T10:04:03.758Z,40.00
2023-01-13T10:06:38.804Z,43.00
2023-01-13T10:09:07.618Z,38.50
2023-01-13T10:12:01.438Z,36.50
2023-01-13T10:14:36.132Z,39.00
2023-01-13T10:17:13.350Z,43.25
2023-01-13T10:19:45.675Z,40.25
2023-01-13T10:22:35.861Z,36.75
2023-01-13T10:25:18.463Z,42.75
2023-01-13T10:27:50.229Z,42.50
2023-01-13T10:30:22.444Z,42.00
2023-01-13T10:32:55.979Z,43.00
2023-01-13T10:35:54.495Z,42.50
2023-01-13T10:38:27.786Z,38.75
2023-01-13T10:40:58.142Z,41.00
2023-01-13T10:43:28.044Z,39.50
2023-01-13T10:46:03.277Z,40.75
2023-01-13T10:48:41.132Z,40.50
2023-01-13T10:51:21.142Z,37.75
2023-01-13T10:53:55.997Z,40.00
2023-01-13T10:56:27.302Z,37.00
2023-01-13T10:59:14.123Z,38.00
2023-01-13T11:01:44.490Z,42.50
2023-01-13T11:04:29.620Z,40.50
2023-01-13T11:06:59.055Z,40.00
2023-01-13T11:09:31.702Z,41.00
2023-01-13T11:12:03.095Z,38.25
2023-01-13T11:14:42.590Z,37.25
2023-01-13T11:17:23.190Z,39.25
2023-01-13T11:19:58.613Z,35.75
2023-01-13T11:22:33.328Z,40.00
2023-01-13T11:25:05.927Z,39.25
2023-01-13T11:27:43.724Z,38.75
2023-01-13T11:30:23.253Z,40.00
2023-01-13T11:33:26.628Z,37.75
2023-01-13T11:36:04.533Z,38.25
2023-01-13T11:38:39.125Z,42.50
2023-01-13T11:41:19.082Z,40.75
2023-01-13T11:43:55.285Z,39.25
2023-01-13T11:46:28.684Z,41.25
2023-01-13T11:48:58.007Z,45.50
2023-01-13T11:51:35.660Z,44.50
2023-01-13T11:54:46.999Z,43.50
2023-01-13T11:57:40.644Z,39.50
2023-01-13T12:00:28.133Z,44.50
2023-01-13T12:03:11.710Z,38.00
2023-01-13T12:05:44.419Z,45.00
2023-01-13T12:08:19.837Z,45.25
2023-01-13T12:11:02.653Z,41.25
2023-01-13T12:13:45.796Z,42.50
2023-01-13T12:16:20.270Z,39.00
2023-01-13T12:19:07.657Z,42.00
2023-01-13T12:21:40.053Z,44.50
2023-01-13T12:24:18.306Z,43.00
2023-01-13T12:26:55.636Z,42.75
2023-01-13T12:29:32.075Z,39.00
2023-01-13T12:32:03.171Z,42.50
2023-01-13T12:34:41.102Z,42.50
2023-01-13T12:37:18.228Z,38.50
2023-01-13T12:40:00.721Z,38.00
2023-01-13T12:42:56.480Z,38.00
2023-01-13T12:45:31.319Z,41.00
2023-01-13T12:48:01.069Z,40.25
2023-01-13T12:50:42.404Z,38.25
2023-01-13T12:53:34.698Z,43.00
2023-01-13T12:56:42.222Z,41.75
2023-01-13T12:59:49.037Z,45.25
2023-01-13T13:03:07.451Z,43.50
2023-01-13T13:05:59.447Z,50.75
2023-01-13T13:08:45.593Z,47.50
2023-01-13T13:11:41.677Z,49.75
2023-01-13T13:14:13.847Z,45.50
2023-01-13T13:16:52.293Z,50.00
2023-01-13T13:19:50.970Z,50.00
2023-01-13T13:22:40.130Z,50.75
2023-01-13T13:25:28.349Z,53.50
2023-01-13T13:28:17.544Z,49.75
2023-01-13T13:30:57.452Z,49.25
2023-01-13T13:33:48.969Z,49.75
2023-01-13T13:36:40.538Z,52.50
2023-01-13T13:39:40.002Z,53.25
2023-01-13T13:42:32.444Z,58.50
2023-01-13T13:45:21.249Z,14.25
2023-01-13T13:47:50.549Z,54.25
2023-01-13T13:50:21.627Z,57.25
2023-01-13T13:52:57.634Z,58.75
2023-01-13T13:55:27.973Z,60.33
2023-01-13T13:57:58.562Z,61.00
2023-01-13T14:00:30.430Z,58.67
2023-01-13T14:03:01.649Z,58.00
2023-01-13T14:05:32.757Z,55.25
2023-01-13T14:08:05.427Z,52.50
2023-01-13T14:10:36.427Z,51.50
2023-01-13T14:13:15.621Z,52.50
2023-01-13T14:15:45.415Z,55.25
2023-01-13T14:18:17.913Z,53.25
2023-01-13T14:20:54.194Z,53.50
2023-01-13T14:23:28.634Z,52.50
2023-01-13T14:26:04.711Z,52.75
2023-01-13T14:28:38.022Z,55.25
2023-01-13T14:31:08.494Z,52.50
2023-01-13T14:33:40.926Z,52.00
2023-01-13T14:36:16.488Z,53.00
2023-01-13T14:38:48.468Z,54.50
2023-01-13T14:41:25.240Z,53.75
2023-01-13T14:43:59.324Z,52.25
2023-01-13T14:46:38.311Z,49.75
2023-01-13T14:49:16.088Z,53.50
2023-01-13T14:51:44.883Z,51.50
2023-01-13T14:54:46.110Z,50.25
2023-01-13T14:57:17.692Z,53.25
2023-01-13T14:59:51.931Z,52.25
2023-01-13T15:02:40.625Z,54.50
2023-01-13T15:05:31.991Z,49.50
2023-01-13T15:08:03.545Z,54.25
2023-01-13T15:10:38.115Z,53.75
2023-01-13T15:13:08.294Z,55.00
2023-01-13T15:15:39.226Z,54.00
2023-01-13T15:18:14.266Z,54.25
2023-01-13T15:20:43.716Z,54.00
2023-01-13T15:23:12.976Z,52.50
2023-01-13T15:25:45.533Z,56.00
2023-01-13T15:28:19.749Z,59.00
2023-01-13T15:30:49.627Z,55.75
2023-01-13T15:33:18.721Z,60.50
2023-01-13T15:35:50.262Z,60.50
2023-01-13T15:38:21.508Z,59.25
2023-01-13T15:40:53.544Z,58.50
2023-01-13T15:43:41.585Z,56.25
2023-01-13T15:46:32.158Z,58.00
2023-01-13T15:49:08.807Z,57.25
2023-01-13T15:51:38.930Z,56.25
2023-01-13T15:54:08.224Z,60.25
2023-01-13T15:56:42.092Z,57.00
2023-01-13T15:59:18.611Z,56.00
2023-01-13T16:01:47.713Z,57.50
2023-01-13T16:04:16.739Z,56.25
2023-01-13T16:06:47.611Z,58.00
2023-01-13T16:09:17.760Z,58.00
2023-01-13T16:11:48.095Z,53.50
2023-01-13T16:14:17.027Z,56.25
2023-01-13T16:16:46.137Z,57.00
2023-01-13T16:19:14.730Z,55.25
2023-01-13T16:21:45.373Z,54.25
2023-01-13T16:24:14.033Z,53.00
2023-01-13T16:26:42.993Z,57.25
2023-01-13T16:29:13.666Z,53.50
2023-01-13T16:31:42.663Z,57.00
2023-01-13T16:34:11.219Z,55.00
2023-01-13T16:36:40.203Z,57.75
2023-01-13T16:39:21.456Z,56.00
2023-01-13T16:41:50.451Z,56.00
2023-01-13T16:44:20.549Z,58.00
2023-01-13T16:46:50.028Z,57.25
2023-01-13T16:49:18.801Z,55.00
2023-01-13T16:51:47.760Z,58.25
2023-01-13T16:54:16.326Z,55.50
2023-01-13T16:56:45.425Z,57.50
2023-01-13T16:59:15.291Z,59.50
2023-01-13T17:01:45.981Z,59.25
2023-01-13T17:04:17.699Z,59.00
2023-01-13T17:06:54.328Z,54.75
2023-01-13T17:09:25.048Z,54.50
2023-01-13T17:11:54.077Z,50.50
2023-01-13T17:14:23.633Z,54.00
2023-01-13T17:16:58.449Z,58.25
2023-01-13T17:19:27.352Z,54.75
2023-01-13T17:21:56.375Z,52.25
2023-01-13T17:24:25.958Z,53.75
2023-01-13T17:26:54.844Z,51.75
2023-01-13T17:29:25.865Z,50.50
2023-01-13T17:31:56.472Z,54.75
2023-01-13T17:34:25.144Z,56.25
2023-01-13T17:36:54.180Z,61.00
2023-01-13T17:39:24.685Z,56.50
2023-01-13T17:41:55.948Z,56.75
2023-01-13T17:44:24.646Z,58.00
2023-01-13T17:46:53.657Z,60.75
2023-01-13T17:49:23.850Z,59.50
2023-01-13T17:51:53.119Z,60.25
2023-01-13T17:54:22.651Z,56.00
2023-01-13T17:56:51.604Z,64.25
2023-01-13T17:59:22.536Z,49.50
2023-01-13T18:01:51.773Z,59.50
2023-01-13T18:04:22.581Z,61.25
2023-01-13T18:06:53.661Z,59.75
2023-01-13T18:09:23.407Z,57.25
2023-01-13T18:11:52.300Z,59.75
2023-01-13T18:14:22.549Z,57.50
2023-01-13T18:16:51.758Z,58.25
2023-01-13T18:19:38.055Z,55.75
2023-01-13T18:22:25.710Z,53.75
2023-01-13T18:25:21.832Z,55.50
2023-01-13T18:27:51.021Z,53.75
2023-01-13T18:30:20.525Z,54.25
2023-01-13T18:32:49.429Z,57.00
2023-01-13T18:35:18.125Z,56.75
2023-01-13T18:37:48.576Z,55.25
2023-01-13T18:40:17.412Z,55.75
2023-01-13T18:42:59.265Z,56.25
2023-01-13T18:45:30.500Z,54.00
2023-01-13T18:48:01.707Z,52.75
2023-01-13T18:50:31.195Z,52.75
2023-01-13T18:53:01.810Z,50.50
2023-01-13T18:55:30.688Z,50.75
2023-01-13T18:57:59.600Z,53.75
2023-01-13T19:00:29.142Z,52.25
2023-01-13T19:05:35.733Z,50.75
2023-01-13T19:08:06.670Z,52.25
2023-01-13T19:10:36.628Z,45.25
2023-01-13T19:13:05.790Z,52.50
2023-01-13T19:15:37.469Z,52.75
2023-01-13T19:18:06.691Z,51.50
2023-01-13T19:20:35.453Z,50.00
2023-01-13T19:23:04.549Z,52.75
2023-01-13T19:25:34.459Z,52.00
2023-01-13T19:28:03.327Z,49.50
2023-01-13T19:30:32.075Z,48.50
2023-01-13T19:33:01.446Z,47.75
2023-01-13T19:35:30.489Z,49.25
2023-01-13T19:37:59.353Z,52.25
2023-01-13T19:40:28.137Z,49.25
2023-01-13T19:43:15.820Z,52.50
2023-01-13T19:45:44.995Z,53.00
2023-01-13T19:48:16.264Z,53.50
2023-01-13T19:50:44.889Z,52.00
2023-01-13T19:53:18.002Z,51.25
2023-01-13T19:55:48.435Z,46.25
2023-01-13T19:58:20.010Z,46.25
2023-01-13T20:00:48.751Z,50.75
2023-01-13T20:03:19.316Z,51.75
2023-01-13T20:05:48.479Z,45.50
2023-01-13T20:08:17.756Z,45.75
2023-01-13T20:10:47.444Z,46.75
2023-01-13T20:13:18.099Z,45.25
2023-01-13T20:15:46.820Z,45.00
2023-01-13T20:18:15.798Z,46.75
2023-01-13T20:20:44.302Z,45.00
2023-01-13T20:23:13.126Z,40.25
2023-01-13T20:25:43.471Z,45.75
2023-01-13T20:28:12.326Z,42.50
2023-01-13T20:30:42.544Z,48.75
2023-01-13T20:33:11.581Z,45.00
2023-01-13T20:35:40.374Z,41.25
2023-01-13T20:38:09.516Z,44.75
2023-01-13T20:40:38.131Z,35.00
2023-01-13T20:43:06.371Z,45.75
2023-01-13T20:45:35.201Z,45.00
2023-01-13T20:48:05.718Z,47.25
2023-01-13T20:50:34.282Z,42.75
2023-01-13T20:53:03.193Z,46.00
2023-01-13T20:55:31.995Z,47.50
2023-01-13T20:58:00.878Z,44.50
2023-01-13T21:00:29.841Z,47.25
2023-01-13T21:02:59.955Z,47.00
2023-01-13T21:05:29.961Z,44.50
2023-01-13T21:07:58.853Z,47.75
2023-01-13T21:10:27.385Z,46.00
2023-01-13T21:13:13.999Z,42.50
2023-01-13T21:15:48.066Z,40.25
2023-01-13T21:18:30.776Z,47.75
2023-01-13T21:21:12.470Z,45.00
2023-01-13T21:23:42.412Z,43.25
2023-01-13T21:26:12.324Z,43.00
2023-01-13T21:28:41.170Z,48.25
2023-01-13T21:31:10.633Z,44.25
2023-01-13T21:33:40.060Z,46.00
2023-01-13T21:36:13.284Z,46.75
2023-01-13T21:38:42.623Z,44.00
2023-01-13T21:41:14.418Z,41.50
2023-01-13T21:44:01.474Z,45.25
2023-01-13T21:46:47.468Z,12.50
2023-01-13T21:49:16.320Z,47.50
2023-01-13T21:51:46.375Z,43.50
2023-01-13T21:54:15.302Z,46.75
2023-01-13T21:56:43.837Z,50.50
2023-01-13T21:59:12.708Z,46.75
2023-01-13T22:02:02.874Z,46.25
2023-01-13T22:04:30.251Z,39.50
2023-01-13T22:07:04.565Z,42.50
2023-01-13T22:09:33.460Z,46.75
2023-01-13T22:12:02.491Z,41.75
2023-01-13T22:14:31.479Z,39.25
2023-01-13T22:17:01.247Z,41.00
2023-01-13T22:19:30.578Z,38.50
2023-01-13T22:22:00.649Z,50.25
2023-01-13T22:24:30.257Z,40.50
2023-01-13T22:26:58.857Z,41.50
2023-01-13T22:29:27.966Z,40.00
2023-01-13T22:31:56.689Z,39.00
2023-01-13T22:34:25.602Z,30.75
2023-01-13T22:36:54.335Z,43.50
2023-01-13T22:39:24.625Z,39.50
2023-01-13T22:41:53.465Z,39.25
2023-01-13T22:44:23.059Z,42.25
2023-01-13T22:46:51.644Z,42.50
2023-01-13T22:49:21.462Z,32.00
2023-01-13T22:51:50.111Z,39.50
2023-01-13T22:54:19.822Z,40.50
2023-01-13T22:56:49.865Z,35.25
2023-01-13T22:59:18.700Z,39.00
2023-01-13T23:01:47.588Z,39.67
2023-01-13T23:04:16.689Z,29.75
2023-01-13T23:06:45.410Z,34.75
2023-01-13T23:09:14.306Z,25.00
2023-01-13T23:11:43.195Z,32.25
2023-01-13T23:14:14.058Z,34.25
2023-01-13T23:16:44.000Z,34.75
2023-01-13T23:19:15.217Z,32.50
2023-01-13T23:21:44.188Z,24.25
2023-01-13T23:24:13.150Z,31.25
2023-01-13T23:26:42.353Z,34.50
2023-01-13T23:29:14.585Z,36.00
2023-01-13T23:31:43.320Z,38.50
2023-01-13T23:34:13.319Z,37.25
2023-01-13T23:36:43.418Z,33.75
2023-01-13T23:39:12.461Z,32.50
2023-01-13T23:41:41.126Z,38.00
2023-01-13T23:44:10.697Z,33.25
2023-01-13T23:46:40.837Z,31.00
2023-01-13T23:49:09.724Z,29.75
2023-01-13T23:51:38.323Z,37.00
2023-01-13T23:54:07.271Z,26.50
2023-01-13T23:56:39.408Z,35.75
2023-01-13T23:59:08.662Z,38.25
